Time;durP1;ratioP1;P1;durP2;ratioP2;P2;SDS_P1;SDS_P2;PMS_P1;PMS_P2;Temp;Humidity;BMP_temperature;BMP_pressure;BME280_temperature;BME280_humidity;BME280_pressure;Samples;Min_cycle;Max_cycle;Signal;HPM_P1;HPM_P2
2021/08/22 00:00:58;;;;;;;9.93;7.75;;;;;;;19.72;65.20;101519.77;1667279;85;21099;-85
2021/08/22 00:03:25;;;;;;;11.75;8.08;;;;;;;19.73;65.39;101523.23;1667245;85;21560;-85
2021/08/22 00:05:51;;;;;;;8.98;7.42;;;;;;;19.71;65.86;101520.75;1667493;85;20936;-86
2021/08/22 00:08:18;;;;;;;10.45;7.90;;;;;;;19.70;65.36;101520.88;1667408;85;21024;-86
2021/08/22 00:10:45;;;;;;;13.15;8.75;;;;;;;19.69;65.99;101523.98;1667467;86;21010;-87
2021/08/22 00:13:12;;;;;;;13.62;8.30;;;;;;;19.65;67.09;101518.68;1667340;86;21056;-86
2021/08/22 00:15:39;;;;;;;14.15;8.20;;;;;;;19.63;67.34;101521.08;1667199;85;21058;-85
2021/08/22 00:18:05;;;;;;;14.13;7.87;;;;;;;19.60;67.42;101519.56;1667309;85;21064;-85
2021/08/22 00:20:32;;;;;;;11.93;8.00;;;;;;;19.59;67.91;101516.61;1667329;86;20990;-84
2021/08/22 00:22:58;;;;;;;12.35;8.30;;;;;;;19.57;67.69;101518.52;1667236;86;20920;-85
2021/08/22 00:25:25;;;;;;;9.73;7.65;;;;;;;19.56;67.94;101515.53;1667355;85;21214;-88
2021/08/22 00:27:53;;;;;;;14.05;8.45;;;;;;;19.55;68.13;101520.47;1667970;86;20928;-89
2021/08/22 00:30:24;;;;;;;12.28;8.03;;;;;;;19.52;67.05;101522.91;1669559;83;20936;-90
2021/08/22 00:32:54;;;;;;;11.88;8.78;;;;;;;19.50;67.04;101522.19;1667558;84;21502;-87
2021/08/22 00:35:20;;;;;;;11.50;8.45;;;;;;;19.45;65.77;101519.16;1676665;85;20888;-87
2021/08/22 00:37:48;;;;;;;10.70;8.40;;;;;;;19.40;65.29;101514.77;1678190;85;21939;-89
2021/08/22 00:40:14;;;;;;;11.75;8.98;;;;;;;19.35;65.13;101513.48;1678083;85;20971;-90
2021/08/22 00:42:41;;;;;;;10.63;8.08;;;;;;;19.30;65.10;101520.50;1677724;85;20947;-88
2021/08/22 00:45:09;;;;;;;15.95;8.35;;;;;;;19.29;65.20;101518.83;1677778;85;21042;-85
2021/08/22 00:47:39;;;;;;;14.50;8.85;;;;;;;19.28;66.31;101521.09;1677791;84;20995;-85
2021/08/22 00:50:06;;;;;;;11.12;8.23;;;;;;;19.27;66.86;101522.05;1677879;85;21124;-85
2021/08/22 00:52:33;;;;;;;10.23;8.10;;;;;;;19.28;66.45;101518.95;1677711;85;20931;-85
2021/08/22 00:55:05;;;;;;;10.48;7.90;;;;;;;19.27;66.47;101522.56;1677713;85;20936;-84
2021/08/22 00:57:33;;;;;;;14.80;8.15;;;;;;;19.26;66.71;101523.05;1677824;85;21007;-84
2021/08/22 01:00:02;;;;;;;15.43;8.58;;;;;;;19.23;66.77;101523.32;1678035;85;20923;-84
2021/08/22 01:02:30;;;;;;;13.95;9.38;;;;;;;19.20;66.96;101524.91;1677787;85;21087;-85
2021/08/22 01:05:19;;;;;;;12.47;8.70;;;;;;;19.18;67.42;101529.94;1677833;85;20936;-85
2021/08/22 01:08:23;;;;;;;15.58;9.00;;;;;;;19.17;67.53;101528.30;1677914;85;20931;-84
2021/08/22 01:10:56;;;;;;;13.10;9.25;;;;;;;19.13;67.50;101527.73;1677676;85;20992;-85
2021/08/22 01:13:26;;;;;;;15.70;9.75;;;;;;;19.09;67.75;101525.01;1678128;84;20931;-84
2021/08/22 01:15:56;;;;;;;18.40;9.25;;;;;;;19.07;67.87;101525.64;1677865;85;21186;-85
2021/08/22 01:18:26;;;;;;;14.75;8.75;;;;;;;19.03;67.60;101525.55;1677883;84;21510;-85
2021/08/22 01:21:10;;;;;;;16.10;9.18;;;;;;;19.01;68.15;101520.92;1656184;85;21509;-84
2021/08/22 01:23:56;;;;;;;15.15;9.13;;;;;;;19.00;68.06;101524.03;1677723;85;21522;-85
2021/08/22 01:26:27;;;;;;;12.65;9.53;;;;;;;18.99;68.14;101523.67;1677889;84;20880;-84
2021/08/22 01:28:55;;;;;;;16.42;9.10;;;;;;;18.97;68.03;101522.98;1677948;85;21062;-84
2021/08/22 01:31:26;;;;;;;14.53;8.95;;;;;;;18.93;68.03;101522.89;1677797;85;21018;-84
2021/08/22 01:33:54;;;;;;;13.08;9.78;;;;;;;18.92;68.19;101523.05;1676311;85;20947;-84
2021/08/22 01:36:21;;;;;;;15.70;10.10;;;;;;;18.89;68.40;101525.94;1642587;86;21590;-84
2021/08/22 01:38:49;;;;;;;14.28;9.30;;;;;;;18.86;68.66;101516.50;1667618;86;21039;-85
2021/08/22 01:41:16;;;;;;;13.03;8.63;;;;;;;18.84;68.50;101518.92;1667528;86;21718;-85
2021/08/22 01:43:43;;;;;;;14.53;8.68;;;;;;;18.82;68.62;101520.86;1667523;86;20963;-85
2021/08/22 01:46:11;;;;;;;13.98;9.40;;;;;;;18.81;68.73;101521.81;1668322;85;21397;-86
2021/08/22 01:48:39;;;;;;;13.05;8.83;;;;;;;18.82;68.78;101516.91;1667773;83;20908;-86
2021/08/22 01:51:07;;;;;;;16.40;9.70;;;;;;;18.84;69.02;101524.17;1667532;86;20967;-86
2021/08/22 01:53:34;;;;;;;12.80;8.85;;;;;;;18.86;68.30;101524.38;1668209;85;21112;-88
2021/08/22 01:56:02;;;;;;;14.43;8.45;;;;;;;18.89;67.78;101531.20;1668470;85;21220;-89
2021/08/22 01:58:30;;;;;;;12.93;9.60;;;;;;;18.91;67.87;101524.84;1668597;86;20987;-91
2021/08/22 02:00:56;;;;;;;16.23;9.30;;;;;;;18.92;67.85;101529.62;1668295;86;20968;-88
2021/08/22 02:03:41;;;;;;;17.48;10.10;;;;;;;18.93;67.78;101528.63;1667698;86;20975;-89
2021/08/22 02:06:20;;;;;;;16.48;10.25;;;;;;;18.93;67.56;101529.47;1668350;85;21557;-89
2021/08/22 02:08:54;;;;;;;19.90;11.35;;;;;;;18.93;67.93;101525.52;1668535;85;20884;-90
2021/08/22 02:11:28;;;;;;;19.60;9.28;;;;;;;18.92;68.51;101533.05;1668886;83;20952;-88
2021/08/22 02:13:55;;;;;;;;;;;;;;;18.93;68.27;101528.63;1670308;85;21531;-85
2021/08/22 02:16:27;;;;;;;13.45;9.18;;;;;;;18.92;68.53;101525.16;1684929;85;20152;-87
2021/08/22 02:18:56;;;;;;;19.55;9.95;;;;;;;18.92;68.32;101530.42;1685615;85;21545;-91
2021/08/22 02:21:24;;;;;;;10.88;8.80;;;;;;;18.91;67.99;101532.73;1637324;85;20962;-87
2021/08/22 02:23:57;;;;;;;9.93;8.85;;;;;;;18.90;67.98;101525.80;1684577;85;21565;-89
2021/08/22 02:26:22;;;;;;;12.88;8.85;;;;;;;18.89;67.63;101534.64;1682882;85;20959;-86
2021/08/22 02:28:59;;;;;;;14.78;9.20;;;;;;;18.90;68.28;101535.00;1684636;85;20939;-85
2021/08/22 02:31:27;;;;;;;12.75;9.28;;;;;;;18.87;68.78;101537.06;1685064;85;22003;-85
2021/08/22 02:33:56;;;;;;;12.35;8.30;;;;;;;18.82;69.44;101535.33;1684736;84;20959;-89
2021/08/22 02:36:23;;;;;;;10.48;8.15;;;;;;;18.80;69.31;101540.70;1650492;86;21025;-90
2021/08/22 02:38:50;;;;;;;12.68;8.63;;;;;;;18.80;68.95;101531.98;1671267;85;21478;-89
2021/08/22 02:41:19;;;;;;;11.65;8.53;;;;;;;18.81;68.80;101535.80;1650623;87;21056;-89
2021/08/22 02:43:47;;;;;;;15.03;8.23;;;;;;;18.81;68.80;101535.80;1650104;85;20908;-86
2021/08/22 02:46:14;;;;;;;13.48;7.70;;;;;;;18.80;68.17;101535.92;1650298;87;21348;-84
2021/08/22 02:48:45;;;;;;;10.78;8.95;;;;;;;18.78;67.90;101533.91;1671214;85;21615;-89
2021/08/22 02:51:11;;;;;;;14.85;11.97;;;;;;;18.76;67.89;101541.12;1650586;87;21010;-86
2021/08/22 02:53:38;;;;;;;12.20;10.50;;;;;;;18.75;68.00;101542.07;1679245;85;21449;-88
2021/08/22 02:56:05;;;;;;;12.80;9.48;;;;;;;18.73;67.99;101544.81;1679486;85;21144;-84
2021/08/22 02:58:32;;;;;;;13.68;9.13;;;;;;;18.73;68.00;101547.95;1671221;85;20944;-89
2021/08/22 03:00:58;;;;;;;15.72;9.48;;;;;;;18.70;67.89;101548.22;1650111;87;21006;-85
2021/08/22 03:03:26;;;;;;;13.83;8.93;;;;;;;18.65;67.99;101550.39;1671187;85;21083;-89
2021/08/22 03:05:52;;;;;;;12.10;8.00;;;;;;;18.60;67.93;101545.55;1650047;87;20997;-82
2021/08/22 03:08:22;;;;;;;13.55;8.45;;;;;;;18.55;68.02;101542.46;1671173;85;22001;-89
2021/08/22 03:10:48;;;;;;;12.35;8.43;;;;;;;18.53;68.07;101542.25;1650572;87;20942;-86
2021/08/22 03:13:15;;;;;;;13.68;9.10;;;;;;;18.48;68.15;101552.63;1648246;86;21530;-86
2021/08/22 03:15:43;;;;;;;13.85;8.45;;;;;;;18.42;68.27;101545.75;1688902;85;21091;-88
2021/08/22 03:18:10;;;;;;;13.93;8.83;;;;;;;18.37;68.47;101547.47;1688394;85;20994;-88
2021/08/22 03:20:36;;;;;;;17.70;8.88;;;;;;;18.36;68.80;101544.95;1688220;85;21133;-84
2021/08/22 03:23:03;;;;;;;15.25;9.08;;;;;;;18.34;68.92;101541.64;1688124;85;20998;-81
2021/08/22 03:25:29;;;;;;;14.68;8.93;;;;;;;18.30;69.15;101545.48;1688689;85;20992;-80
2021/08/22 03:27:58;;;;;;;15.35;8.55;;;;;;;18.26;69.43;101544.06;1687966;85;20912;-86
2021/08/22 03:30:26;;;;;;;14.35;8.65;;;;;;;18.22;69.71;101550.05;1688306;85;21620;-88
2021/08/22 03:32:54;;;;;;;12.88;8.28;;;;;;;18.20;70.10;101550.67;1688582;85;21150;-87
2021/08/22 03:35:21;;;;;;;11.97;8.55;;;;;;;18.22;70.87;101550.05;1688557;84;20888;-89
2021/08/22 03:37:48;;;;;;;16.10;8.65;;;;;;;18.22;71.29;101547.94;1689128;85;21016;-88
2021/08/22 03:40:15;;;;;;;15.43;9.20;;;;;;;18.22;71.15;101547.94;1688986;85;21019;-93
2021/08/22 03:42:42;;;;;;;12.85;9.23;;;;;;;18.23;71.07;101558.77;1689063;85;21022;-90
2021/08/22 03:45:09;;;;;;;17.00;9.90;;;;;;;18.22;71.10;101555.30;1688601;85;21084;-81
2021/08/22 03:47:36;;;;;;;15.88;9.65;;;;;;;18.21;71.02;101549.72;1688438;85;20919;-88
2021/08/22 03:50:05;;;;;;;16.35;10.10;;;;;;;18.22;70.91;101552.68;1688866;85;20959;-87
2021/08/22 03:52:32;;;;;;;14.18;9.10;;;;;;;18.24;70.98;101548.15;1688746;84;21098;-90
2021/08/22 03:54:59;;;;;;;13.85;10.08;;;;;;;18.25;70.98;101558.19;1688753;85;20934;-85
2021/08/22 03:57:26;;;;;;;12.82;9.15;;;;;;;18.25;71.02;101562.13;1688647;85;21839;-82
2021/08/22 03:59:52;;;;;;;16.93;10.28;;;;;;;18.23;71.13;101559.61;1688494;85;21079;-88
2021/08/22 04:02:21;;;;;;;16.15;10.20;;;;;;;18.22;71.39;101566.33;1688636;84;20995;-86
2021/08/22 04:05:01;;;;;;;16.27;9.50;;;;;;;18.20;71.55;101571.69;1607677;89;21077;-87
2021/08/22 04:07:29;;;;;;;16.15;9.58;;;;;;;18.19;71.76;101564.77;1688772;84;21569;-91
2021/08/22 04:09:57;;;;;;;19.45;10.63;;;;;;;18.21;72.00;101564.65;1688685;85;21171;-86
2021/08/22 04:12:23;;;;;;;14.83;9.78;;;;;;;18.22;72.11;101569.76;1688446;85;20991;-90
2021/08/22 04:14:50;;;;;;;13.93;10.10;;;;;;;18.23;72.15;101573.22;1688952;85;21450;-88
2021/08/22 04:17:16;;;;;;;17.77;10.45;;;;;;;18.21;72.16;101570.73;1688618;85;20957;-89
2021/08/22 04:19:43;;;;;;;16.30;10.15;;;;;;;18.24;72.28;101569.17;1688900;85;21055;-89
2021/08/22 04:22:11;;;;;;;18.30;10.72;;;;;;;18.27;73.04;101571.54;1688644;85;21171;-88
2021/08/22 04:24:38;;;;;;;26.10;11.12;;;;;;;18.30;73.32;101567.81;1667086;85;20920;-87
2021/08/22 04:27:05;;;;;;;20.35;10.35;;;;;;;18.36;73.75;101567.30;1666922;85;20944;-86
2021/08/22 04:29:38;;;;;;;18.90;10.75;;;;;;;18.41;73.93;101567.25;1688524;85;21711;-85
2021/08/22 04:32:05;;;;;;;;;;;;;;;18.49;73.88;101574.50;1690998;85;21093;-88
2021/08/22 04:34:32;;;;;;;15.83;9.98;;;;;;;18.52;73.72;101570.80;1688707;83;21135;-88
2021/08/22 04:36:58;;;;;;;13.90;9.50;;;;;;;18.56;74.05;101572.22;1703250;84;21509;-89
2021/08/22 04:39:27;;;;;;;14.40;9.50;;;;;;;18.57;73.96;101571.27;1703114;84;20896;-88
2021/08/22 04:41:53;;;;;;;17.25;9.60;;;;;;;18.60;74.10;101577.09;1703377;84;20967;-90
2021/08/22 04:44:20;;;;;;;12.80;8.43;;;;;;;18.64;74.04;101578.95;1703160;84;21499;-90
2021/08/22 04:46:47;;;;;;;18.12;9.50;;;;;;;18.69;74.26;101568.89;1703225;84;21087;-86
2021/08/22 04:49:14;;;;;;;15.18;9.38;;;;;;;18.75;74.42;101580.20;1702951;84;21521;-86
2021/08/22 04:51:40;;;;;;;16.73;11.05;;;;;;;18.82;74.28;101579.55;1703185;84;21086;-86
2021/08/22 04:54:08;;;;;;;17.52;10.98;;;;;;;18.89;74.06;101581.17;1703147;84;20927;-86
2021/08/22 04:56:34;;;;;;;22.80;11.33;;;;;;;18.93;73.94;101585.19;1703180;84;21043;-87
2021/08/22 04:59:02;;;;;;;22.35;12.73;;;;;;;18.98;73.95;101592.21;1703173;84;21097;-87
2021/08/22 05:01:28;;;;;;;21.42;12.70;;;;;;;19.03;73.84;101591.32;1703084;84;20979;-88
2021/08/22 05:03:55;;;;;;;18.65;11.73;;;;;;;19.09;73.75;101588.16;1702844;84;21528;-87
2021/08/22 05:06:22;;;;;;;15.58;10.72;;;;;;;19.17;73.46;101590.13;1703084;84;20987;-87
2021/08/22 05:08:50;;;;;;;16.10;10.58;;;;;;;19.25;73.14;101592.91;1677419;84;20875;-86
2021/08/22 05:11:17;;;;;;;18.35;11.50;;;;;;;19.32;73.27;101591.41;1703224;84;21135;-86
2021/08/22 05:13:43;;;;;;;16.82;11.60;;;;;;;19.38;73.24;101588.23;1703315;84;21038;-87
2021/08/22 05:16:10;;;;;;;18.50;11.78;;;;;;;19.45;73.10;101589.39;1703158;84;21038;-86
2021/08/22 05:18:38;;;;;;;18.90;12.80;;;;;;;19.51;73.01;101592.31;1703250;84;21419;-86
2021/08/22 05:21:05;;;;;;;27.07;12.82;;;;;;;19.57;72.99;101590.93;1703168;84;20903;-86
2021/08/22 05:23:32;;;;;;;18.35;12.53;;;;;;;19.64;72.94;101588.58;1703279;84;21154;-86
2021/08/22 05:25:59;;;;;;;19.45;12.85;;;;;;;19.71;72.88;101591.02;1703190;84;21426;-85
2021/08/22 05:28:25;;;;;;;19.90;12.25;;;;;;;19.81;72.70;101598.45;1703200;84;21305;-85
2021/08/22 05:30:53;;;;;;;14.75;11.03;;;;;;;19.88;72.80;101593.79;1703158;84;20955;-87
2021/08/22 05:33:19;;;;;;;15.75;11.75;;;;;;;19.95;72.86;101598.02;1703188;84;21542;-87
2021/08/22 05:35:46;;;;;;;14.00;10.28;;;;;;;20.03;72.94;101602.13;1696916;83;21077;-85
2021/08/22 05:38:13;;;;;;;20.10;10.48;;;;;;;20.11;72.66;101598.30;1687955;85;20931;-87
2021/08/22 05:40:39;;;;;;;16.57;10.08;;;;;;;20.19;72.54;101597.61;1688170;85;21483;-87
2021/08/22 05:43:06;;;;;;;14.68;10.53;;;;;;;20.28;72.30;101600.74;1687804;85;20951;-87
2021/08/22 05:45:32;;;;;;;11.55;10.00;;;;;;;20.37;72.03;101595.45;1688056;85;21856;-87
2021/08/22 05:48:00;;;;;;;15.95;9.75;;;;;;;20.48;71.77;101595.31;1688121;85;20849;-85
2021/08/22 05:50:27;;;;;;;13.78;9.05;;;;;;;20.59;71.15;101588.53;1687885;85;20955;-86
2021/08/22 05:52:54;;;;;;;14.40;9.40;;;;;;;20.70;71.05;101593.30;1688056;85;21525;-87
2021/08/22 05:55:20;;;;;;;14.83;9.48;;;;;;;20.78;70.77;101595.55;1688139;85;20864;-82
2021/08/22 05:57:46;;;;;;;11.28;9.18;;;;;;;20.84;70.52;101596.77;1688021;85;20983;-86
2021/08/22 06:00:14;;;;;;;16.45;9.15;;;;;;;20.91;69.97;101588.14;1688120;85;21088;-86
2021/08/22 06:02:40;;;;;;;13.53;9.53;;;;;;;20.97;69.68;101584.91;1688003;85;20884;-86
2021/08/22 06:05:08;;;;;;;17.12;9.53;;;;;;;21.04;69.43;101583.84;1688071;85;21031;-88
2021/08/22 06:07:35;;;;;;;17.10;10.80;;;;;;;21.12;69.37;101581.83;1688108;85;20940;-82
2021/08/22 06:10:06;;;;;;;21.97;12.23;;;;;;;21.21;69.27;101583.58;1688109;85;20901;-85
2021/08/22 06:12:31;;;;;;;17.37;12.95;;;;;;;21.35;68.95;101585.22;1688249;85;21073;-87
2021/08/22 06:14:58;;;;;;;14.00;9.93;;;;;;;21.47;68.53;101590.66;1688231;85;21003;-87
2021/08/22 06:17:25;;;;;;;17.57;12.55;;;;;;;21.53;68.25;101587.91;1688302;85;20912;-81
2021/08/22 06:19:51;;;;;;;15.15;11.15;;;;;;;21.61;68.02;101584.01;1688177;85;20928;-88
2021/08/22 06:22:18;;;;;;;12.95;10.32;;;;;;;21.68;67.65;101585.08;1688263;85;21443;-81
2021/08/22 06:24:47;;;;;;;14.63;10.53;;;;;;;21.76;67.55;101585.14;1688191;85;21108;-84
2021/08/22 06:27:14;;;;;;;14.45;10.60;;;;;;;21.83;67.28;101594.61;1687958;85;20936;-84
2021/08/22 06:29:42;;;;;;;12.95;9.30;;;;;;;21.91;67.17;101592.09;1688016;85;20995;-85
2021/08/22 06:32:09;;;;;;;16.20;9.03;;;;;;;21.98;67.20;101596.63;1687828;85;21664;-86
2021/08/22 06:34:35;;;;;;;13.05;9.18;;;;;;;22.06;67.16;101591.88;1687960;85;21060;-88
2021/08/22 06:37:02;;;;;;;13.08;8.70;;;;;;;22.14;67.15;101591.97;1688459;84;21885;-88
2021/08/22 06:39:29;;;;;;;14.47;8.95;;;;;;;22.22;66.47;101597.78;1688626;85;20970;-83
2021/08/22 06:41:55;;;;;;;13.85;8.85;;;;;;;22.28;66.02;101597.16;1688762;85;21486;-81
2021/08/22 06:44:22;;;;;;;11.60;9.25;;;;;;;22.36;65.75;101599.40;1688507;85;21102;-80
2021/08/22 06:46:49;;;;;;;13.58;8.50;;;;;;;22.47;65.32;101603.58;1688821;85;20967;-81
2021/08/22 06:49:15;;;;;;;9.53;8.40;;;;;;;22.59;65.07;101601.84;1689012;85;21749;-85
2021/08/22 06:51:42;;;;;;;10.35;8.65;;;;;;;;;;1688722;85;20916;-82
2021/08/22 06:54:08;;;;;;;11.30;7.95;;;;;;;22.77;64.03;101599.18;1688741;85;21038;-80
2021/08/22 06:56:35;;;;;;;11.20;8.10;;;;;;;22.88;63.41;101598.89;1688962;85;20971;-82
2021/08/22 06:59:01;;;;;;;9.83;8.38;;;;;;;22.99;63.12;101599.12;1688636;85;20892;-84
2021/08/22 07:01:28;;;;;;;9.68;8.03;;;;;;;23.08;62.75;101602.13;1688719;85;21104;-85
2021/08/22 07:03:54;;;;;;;13.18;8.15;;;;;;;23.19;62.35;101600.53;1688675;85;21498;-81
2021/08/22 07:06:21;;;;;;;11.45;7.75;;;;;;;23.33;61.73;101605.20;1688884;85;20956;-85
2021/08/22 07:08:47;;;;;;;12.30;8.45;;;;;;;23.47;61.39;101609.08;1688824;85;20959;-80
2021/08/22 07:11:14;;;;;;;10.50;8.23;;;;;;;23.58;61.06;101604.30;1688743;85;21549;-85
2021/08/22 07:13:42;;;;;;;10.00;8.18;;;;;;;23.69;60.79;101609.79;1688679;85;49574;-88
2021/08/22 07:16:08;;;;;;;10.32;8.33;;;;;;;23.77;60.43;101611.63;1688667;85;21529;-83
2021/08/22 07:18:36;;;;;;;13.43;7.62;;;;;;;23.81;60.46;101611.12;1688750;85;20987;-84
2021/08/22 07:21:04;;;;;;;11.28;9.88;;;;;;;23.89;60.74;101617.78;1688686;85;20960;-87
2021/08/22 07:23:32;;;;;;;11.00;9.90;;;;;;;23.99;59.59;101617.13;1688661;85;21010;-87
2021/08/22 07:25:59;;;;;;;10.78;9.78;;;;;;;24.11;58.84;101618.95;1688654;85;21978;-82
2021/08/22 07:28:25;;;;;;;10.10;8.68;;;;;;;24.20;58.71;101621.95;1688551;85;21038;-87
2021/08/22 07:30:51;;;;;;;14.38;10.08;;;;;;;24.31;58.34;101614.16;1688612;85;20956;-87
2021/08/22 07:33:18;;;;;;;12.75;8.88;;;;;;;24.39;57.71;101610.16;1688624;84;20931;-82
2021/08/22 07:35:45;;;;;;;10.65;9.40;;;;;;;24.47;57.36;101616.31;1688654;84;20951;-85
2021/08/22 07:38:11;;;;;;;13.22;8.48;;;;;;;24.54;57.01;101619.92;1688590;85;21518;-83
2021/08/22 07:40:39;;;;;;;11.95;8.68;;;;;;;24.59;57.07;101612.80;1688944;85;20860;-82
2021/08/22 07:43:05;;;;;;;11.10;7.58;;;;;;;24.64;56.86;101607.30;1688717;85;20963;-89
2021/08/22 07:45:33;;;;;;;11.15;7.30;;;;;;;24.69;56.69;101600.16;1688651;85;21075;-80
2021/08/22 07:47:59;;;;;;;10.23;8.43;;;;;;;24.75;56.54;101604.79;1688976;85;20935;-92
2021/08/22 07:50:26;;;;;;;12.78;8.28;;;;;;;24.84;56.47;101609.10;1688734;85;21168;-85
2021/08/22 07:52:52;;;;;;;11.55;8.63;;;;;;;24.91;56.64;101609.25;1688821;85;20955;-82
2021/08/22 07:55:19;;;;;;;23.27;17.32;;;;;;;24.98;56.80;101609.73;1688653;85;21559;-83
2021/08/22 07:57:46;;;;;;;17.65;13.08;;;;;;;25.07;59.38;101613.17;1688591;85;21494;-86
2021/08/22 08:00:13;;;;;;;14.05;11.22;;;;;;;25.11;58.56;101611.31;1688752;85;21019;-85
2021/08/22 08:02:40;;;;;;;11.78;9.13;;;;;;;25.16;58.23;101616.12;1666861;85;21115;-83
2021/08/22 08:05:07;;;;;;;9.58;8.40;;;;;;;25.21;57.44;101613.26;1688568;85;20944;-85
2021/08/22 08:07:33;;;;;;;13.72;8.75;;;;;;;25.30;58.25;101609.25;1688811;85;21030;-90
2021/08/22 08:10:01;;;;;;;9.48;8.35;;;;;;;25.38;58.41;101611.85;1688757;85;20952;-82
2021/08/22 08:12:28;;;;;;;10.98;8.03;;;;;;;25.44;57.93;101614.64;1688659;85;20988;-86
2021/08/22 08:14:59;;;;;;;8.58;7.70;;;;;;;25.50;58.20;101609.15;1688697;85;21159;-79
2021/08/22 08:17:27;;;;;;;11.10;9.15;;;;;;;25.56;57.35;101605.29;1688553;85;20979;-88
2021/08/22 08:19:55;;;;;;;11.48;8.88;;;;;;;25.61;57.96;101608.27;1689105;85;20996;-90
2021/08/22 08:22:23;;;;;;;11.88;9.23;;;;;;;25.65;57.86;101607.42;1688430;84;21043;-83
2021/08/22 08:24:53;;;;;;;14.00;9.38;;;;;;;25.72;57.46;101605.68;1688772;85;21529;-90
2021/08/22 08:27:19;;;;;;;10.90;7.62;;;;;;;25.81;57.60;101601.98;1688760;85;21250;-88
2021/08/22 08:29:46;;;;;;;10.18;7.55;;;;;;;25.94;57.06;101602.19;1689302;85;21503;-83
2021/08/22 08:32:18;;;;;;;8.18;6.60;;;;;;;26.07;54.65;101600.28;1688975;85;21015;-91
2021/08/22 08:34:48;;;;;;;7.22;6.08;;;;;;;26.19;53.81;101598.88;1688023;84;21047;-85
2021/08/22 08:37:15;;;;;;;10.53;5.40;;;;;;;26.37;51.80;101599.86;1688098;84;21570;-82
2021/08/22 08:39:42;;;;;;;12.20;5.45;;;;;;;26.53;49.11;101596.53;1688016;85;21136;-84
2021/08/22 08:42:23;;;;;;;8.83;5.53;;;;;;;26.72;48.68;101589.33;1688043;85;21058;-87
2021/08/22 08:44:54;;;;;;;6.25;4.92;;;;;;;26.95;49.02;101597.25;1688258;85;20856;-84
2021/08/22 08:47:26;;;;;;;9.75;5.95;;;;;;;27.19;48.05;101592.94;1688134;85;20944;-85
2021/08/22 08:50:12;;;;;;;5.95;5.30;;;;;;;27.42;46.34;101597.28;1688258;85;20976;-85
2021/08/22 08:53:01;;;;;;;6.42;5.47;;;;;;;27.60;45.79;101591.08;1688583;85;21145;-82
2021/08/22 08:55:38;;;;;;;8.53;5.85;;;;;;;27.78;45.78;101598.95;1688109;85;20999;-91
2021/08/22 08:58:05;;;;;;;7.12;5.28;;;;;;;28.01;45.87;101600.08;1688204;85;20948;-84
2021/08/22 09:00:39;;;;;;;7.78;5.78;;;;;;;28.15;44.16;101595.19;1688317;85;21063;-84
2021/08/22 09:03:06;;;;;;;9.15;5.47;;;;;;;28.21;43.65;101590.41;1688179;85;21067;-88
2021/08/22 09:06:12;;;;;;;6.17;5.15;;;;;;;28.25;43.85;101598.34;1688410;85;21149;-84
2021/08/22 09:09:20;;;;;;;12.28;6.42;;;;;;;28.31;43.20;101593.56;1688599;85;20892;-94
2021/08/22 09:12:17;;;;;;;7.28;6.22;;;;;;;28.27;44.19;101593.63;1688384;85;21004;-92
2021/08/22 09:15:20;;;;;;;7.42;5.30;;;;;;;28.26;42.32;101586.66;1688415;85;21707;-85
2021/08/22 09:18:26;;;;;;;6.08;5.47;;;;;;;28.27;41.94;101588.28;1688305;85;21061;-82
2021/08/22 09:21:24;;;;;;;6.95;5.20;;;;;;;28.33;42.74;101584.87;1688122;85;21141;-86
2021/08/22 09:24:20;;;;;;;7.15;5.12;;;;;;;28.42;42.22;101572.69;1681019;85;20944;-83
2021/08/22 09:27:38;;;;;;;6.12;5.42;;;;;;;28.53;41.95;101568.95;1643441;85;21031;-85
2021/08/22 09:31:03;;;;;;;5.85;5.20;;;;;;;28.66;41.02;101578.91;1687940;85;20987;-90
2021/08/22 09:34:15;;;;;;;8.88;6.30;;;;;;;28.64;41.37;101576.92;1687907;85;21011;-83
2021/08/22 09:37:31;;;;;;;7.55;5.47;;;;;;;28.51;40.11;101571.00;1668907;84;21152;-82
2021/08/22 09:40:53;;;;;;;6.25;5.08;;;;;;;28.56;40.89;101571.22;1688009;85;20979;-82
2021/08/22 09:44:15;;;;;;;6.70;4.90;;;;;;;28.75;41.22;101574.55;1688175;85;21007;-83
2021/08/22 09:47:41;;;;;;;5.80;5.28;;;;;;;28.95;40.35;101563.95;1688339;85;20965;-81
2021/08/22 09:50:39;;;;;;;6.12;5.53;;;;;;;29.16;40.58;101568.36;1687016;85;21431;-82
2021/08/22 09:53:37;;;;;;;6.75;5.17;;;;;;;29.42;39.20;101567.64;1688223;85;21153;-86
2021/08/22 09:56:44;;;;;;;7.10;5.30;;;;;;;30.07;38.60;101569.05;1688217;85;20979;-83
2021/08/22 09:59:50;;;;;;;7.90;4.85;;;;;;;30.70;36.95;101556.78;1605566;89;21066;-90
2021/08/22 10:02:38;;;;;;;7.05;5.28;;;;;;;31.19;36.06;101564.23;1688053;85;20999;-83
2021/08/22 10:05:39;;;;;;;5.83;5.28;;;;;;;31.41;34.78;101566.89;1688027;85;20948;-85
2021/08/22 10:08:28;;;;;;;7.13;5.33;;;;;;;30.97;34.82;101565.59;1688677;85;21162;-88
2021/08/22 10:11:00;;;;;;;7.03;5.28;;;;;;;30.43;35.40;101561.42;1688001;85;21533;-86
2021/08/22 10:13:27;;;;;;;5.70;5.20;;;;;;;29.97;36.10;101555.25;1688266;85;20948;-83
2021/08/22 10:15:54;;;;;;;7.35;5.40;;;;;;;29.73;36.91;101556.67;1688044;85;21610;-83
2021/08/22 10:18:22;;;;;;;5.60;4.55;;;;;;;29.51;37.09;101555.72;1688393;85;20908;-85
2021/08/22 10:20:53;;;;;;;7.83;5.17;;;;;;;29.34;37.49;101555.27;1688073;85;21969;-82
2021/08/22 10:23:43;;;;;;;13.00;5.65;;;;;;;29.14;38.11;101555.18;1687931;84;20940;-83
2021/08/22 10:26:48;;;;;;;14.18;6.17;;;;;;;29.01;38.90;101554.30;1687965;85;20982;-83
2021/08/22 10:29:27;;;;;;;7.12;5.50;;;;;;;28.89;39.78;101560.23;1684473;85;20924;-91
2021/08/22 10:32:01;;;;;;;5.00;4.58;;;;;;;28.81;40.42;101558.26;1688158;85;21651;-87
2021/08/22 10:34:33;;;;;;;5.67;4.97;;;;;;;28.84;39.72;101553.84;1687965;85;21143;-82
2021/08/22 10:36:59;;;;;;;5.62;5.12;;;;;;;28.95;38.93;101552.44;1689589;84;21437;-85
2021/08/22 10:39:30;;;;;;;6.28;4.72;;;;;;;29.19;38.60;101548.73;1703233;84;20967;-82
2021/08/22 10:42:19;;;;;;;5.78;4.70;;;;;;;29.46;38.06;101543.45;1703155;84;21007;-82
2021/08/22 10:44:46;;;;;;;7.15;5.10;;;;;;;29.75;37.55;101537.73;1699119;81;21517;-84
2021/08/22 10:47:23;;;;;;;5.40;4.87;;;;;;;30.04;38.16;101537.85;1703275;84;21115;-83
2021/08/22 10:49:57;;;;;;;5.83;4.20;;;;;;;30.23;37.33;101538.34;1702863;84;21426;-83
2021/08/22 10:52:42;;;;;;;6.42;4.55;;;;;;;30.39;37.07;101533.39;1703433;84;21572;-86
2021/08/22 10:55:20;;;;;;;11.22;5.20;;;;;;;30.49;36.00;101534.81;1678426;84;21014;-84
2021/08/22 10:57:50;;;;;;;6.87;4.78;;;;;;;30.32;35.40;101535.74;1703337;84;21063;-87
2021/08/22 11:00:30;;;;;;;4.97;4.47;;;;;;;30.08;34.93;101527.88;1703268;84;21508;-85
2021/08/22 11:02:58;;;;;;;5.35;4.85;;;;;;;29.95;35.09;101533.74;1703236;84;20990;-84
2021/08/22 11:05:28;;;;;;;5.37;4.65;;;;;;;29.77;35.53;101533.80;1703459;84;20915;-89
2021/08/22 11:07:57;;;;;;;7.25;5.15;;;;;;;29.66;35.54;101529.09;1703199;84;20947;-89
2021/08/22 11:10:27;;;;;;;13.65;5.12;;;;;;;29.56;36.39;101531.84;1703271;84;21034;-90
2021/08/22 11:12:55;;;;;;;9.43;5.45;;;;;;;29.41;37.69;101534.72;1703365;84;21545;-91
2021/08/22 11:15:28;;;;;;;9.23;5.03;;;;;;;29.31;37.79;101532.44;1703271;84;21434;-83
2021/08/22 11:17:59;;;;;;;5.67;4.40;;;;;;;29.22;37.98;101532.29;1703254;84;20999;-82
2021/08/22 11:20:28;;;;;;;8.73;5.50;;;;;;;29.14;38.04;101533.80;1703720;84;20998;-90
2021/08/22 11:23:06;;;;;;;6.78;5.53;;;;;;;29.04;38.39;101538.69;1703334;84;21002;-83
2021/08/22 11:25:33;;;;;;;11.03;8.68;;;;;;;28.95;38.64;101534.55;1703182;84;21212;-83
2021/08/22 11:28:12;;;;;;;8.33;6.25;;;;;;;28.89;38.76;101534.02;1703110;84;20888;-83
2021/08/22 11:30:42;;;;;;;8.98;4.80;;;;;;;28.85;38.87;101528.25;1703248;84;21018;-83
2021/08/22 11:33:10;;;;;;;5.97;4.75;;;;;;;28.85;39.08;101524.75;1703076;84;21073;-83
2021/08/22 11:35:43;;;;;;;11.63;5.08;;;;;;;28.84;38.81;101525.80;1703237;84;20998;-83
2021/08/22 11:38:10;;;;;;;10.32;4.95;;;;;;;28.85;39.69;101525.58;1703082;83;21805;-83
2021/08/22 11:40:38;;;;;;;6.12;4.90;;;;;;;28.91;40.01;101523.95;1703346;84;21584;-83